DLH7KM EDDH-EDDF
Flight info
| Callsign | DLH7KM |
|---|---|
| Flight time | 0h 45m |
| Altitude | 30000 |
| Route | AMLUH2G/33 AMLUH M852 DENIX DCT RIMET/N0449F310 T157 KOKEB/N0393F230 T157 KERAX KERAX5A |
| Aircraft | A20N/M-SDE2E3FGHIRWXY/LB1 |
Departure
| Time | 2026-05-07 15:30 |
|---|---|
| Airport | Hamburg Helmut Schmidt Airport (EDDH) |
Arrival
| Time | 2026-05-07 16:16 |
|---|---|
| Airport | Frankfurt Main Airport (EDDF) |
| Time | Latitude | Longitude | Altitude | Speed | Heading |
|---|---|---|---|---|---|
| 2026-05-07 14:51 | 53.63412 | 10.00331 | 62 ft | 0 kts | 85° |
| 2026-05-07 15:15 | 53.63413 | 10.00331 | 62 ft | 0 kts | 85° |
| 2026-05-07 15:16 | 53.63412 | 10.00331 | 62 ft | 0 kts | 85° |
| 2026-05-07 15:16 | 53.63413 | 10.00331 | 62 ft | 0 kts | 85° |
| 2026-05-07 15:16 | 53.63412 | 10.00323 | 62 ft | 2 kts | 85° |
| 2026-05-07 15:16 | 53.63411 | 10.00298 | 62 ft | 2 kts | 85° |
| 2026-05-07 15:17 | 53.63410 | 10.00272 | 62 ft | 2 kts | 100° |
| 2026-05-07 15:17 | 53.63415 | 10.00248 | 62 ft | 2 kts | 123° |
| 2026-05-07 15:17 | 53.63425 | 10.00230 | 62 ft | 2 kts | 145° |
| 2026-05-07 15:17 | 53.63439 | 10.00219 | 62 ft | 1 kts | 170° |
| 2026-05-07 15:18 | 53.63446 | 10.00218 | 62 ft | 1 kts | 179° |
| 2026-05-07 15:18 | 53.63450 | 10.00218 | 62 ft | 0 kts | 176° |
| 2026-05-07 15:22 | 53.63449 | 10.00218 | 62 ft | 0 kts | 176° |
| 2026-05-07 15:22 | 53.63437 | 10.00219 | 62 ft | 4 kts | 176° |
| 2026-05-07 15:22 | 53.63401 | 10.00224 | 62 ft | 5 kts | 175° |
| 2026-05-07 15:23 | 53.63354 | 10.00230 | 62 ft | 7 kts | 176° |
| 2026-05-07 15:23 | 53.63303 | 10.00235 | 62 ft | 6 kts | 176° |
| 2026-05-07 15:23 | 53.63250 | 10.00242 | 62 ft | 8 kts | 174° |
| 2026-05-07 15:23 | 53.63191 | 10.00249 | 62 ft | 9 kts | 174° |
| 2026-05-07 15:24 | 53.63125 | 10.00259 | 62 ft | 9 kts | 175° |
| 2026-05-07 15:24 | 53.63055 | 10.00245 | 62 ft | 10 kts | 205° |
| 2026-05-07 15:24 | 53.62989 | 10.00177 | 62 ft | 11 kts | 214° |
| 2026-05-07 15:24 | 53.62919 | 10.00100 | 62 ft | 12 kts | 213° |
| 2026-05-07 15:25 | 53.62857 | 10.00012 | 62 ft | 7 kts | 237° |
| 2026-05-07 15:25 | 53.62841 | 9.99963 | 62 ft | 4 kts | 244° |
| 2026-05-07 15:25 | 53.62840 | 9.99958 | 62 ft | 0 kts | 244° |
| 2026-05-07 15:27 | 53.62821 | 9.99891 | 62 ft | 11 kts | 248° |
| 2026-05-07 15:28 | 53.62835 | 9.99773 | 62 ft | 10 kts | 323° |
| 2026-05-07 15:28 | 53.62894 | 9.99722 | 62 ft | 7 kts | 333° |
| 2026-05-07 15:28 | 53.62906 | 9.99713 | 62 ft | 0 kts | 333° |
| 2026-05-07 15:28 | 53.62913 | 9.99706 | 62 ft | 1 kts | 333° |
| 2026-05-07 15:29 | 53.62919 | 9.99701 | 62 ft | 0 kts | 333° |
| 2026-05-07 15:29 | 53.62951 | 9.99675 | 62 ft | 26 kts | 334° |
| 2026-05-07 15:29 | 53.63348 | 9.99333 | 62 ft | 98 kts | 332° |
| 2026-05-07 15:29 | 53.64140 | 9.98640 | 62 ft | 156 kts | 333° |
| 2026-05-07 15:30 | 53.65196 | 9.97742 | 408 ft | 173 kts | 337° |
| 2026-05-07 15:30 | 53.66304 | 9.96861 | 951 ft | 182 kts | 339° |
| 2026-05-07 15:30 | 53.67460 | 9.95948 | 1673 ft | 183 kts | 339° |
| 2026-05-07 15:30 | 53.68627 | 9.95038 | 2194 ft | 187 kts | 343° |
| 2026-05-07 15:31 | 53.69928 | 9.94596 | 2524 ft | 197 kts | 2° |
| 2026-05-07 15:31 | 53.71326 | 9.94716 | 2901 ft | 209 kts | 7° |
| 2026-05-07 15:31 | 53.72781 | 9.95178 | 3298 ft | 217 kts | 28° |
| 2026-05-07 15:31 | 53.73909 | 9.96920 | 3728 ft | 226 kts | 64° |
| 2026-05-07 15:32 | 53.74221 | 9.99489 | 4397 ft | 229 kts | 86° |
| 2026-05-07 15:32 | 53.74269 | 10.02181 | 5156 ft | 230 kts | 92° |
| 2026-05-07 15:32 | 53.73882 | 10.04797 | 5853 ft | 236 kts | 114° |
| 2026-05-07 15:32 | 53.73053 | 10.07305 | 6298 ft | 253 kts | 118° |
| 2026-05-07 15:33 | 53.72127 | 10.09953 | 6797 ft | 267 kts | 118° |
| 2026-05-07 15:33 | 53.71126 | 10.12601 | 7508 ft | 273 kts | 129° |
| 2026-05-07 15:33 | 53.69546 | 10.14412 | 8225 ft | 281 kts | 157° |
| 2026-05-07 15:33 | 53.67669 | 10.15407 | 9001 ft | 284 kts | 163° |
| 2026-05-07 15:34 | 53.65741 | 10.16293 | 9730 ft | 287 kts | 163° |
| 2026-05-07 15:34 | 53.63833 | 10.17214 | 10418 ft | 291 kts | 162° |
| 2026-05-07 15:34 | 53.61841 | 10.18237 | 10825 ft | 305 kts | 162° |
| 2026-05-07 15:34 | 53.59679 | 10.19401 | 11148 ft | 323 kts | 161° |
| 2026-05-07 15:35 | 53.57488 | 10.20612 | 11474 ft | 338 kts | 161° |
| 2026-05-07 15:35 | 53.55178 | 10.21907 | 12041 ft | 345 kts | 161° |
| 2026-05-07 15:35 | 53.52790 | 10.23253 | 12757 ft | 348 kts | 161° |
| 2026-05-07 15:35 | 53.50403 | 10.24603 | 13406 ft | 352 kts | 161° |
| 2026-05-07 15:36 | 53.48076 | 10.25919 | 14044 ft | 355 kts | 161° |
| 2026-05-07 15:36 | 53.45712 | 10.27256 | 14671 ft | 358 kts | 161° |
| 2026-05-07 15:36 | 53.43317 | 10.28610 | 15267 ft | 362 kts | 161° |
| 2026-05-07 15:36 | 53.40875 | 10.29989 | 15857 ft | 365 kts | 161° |
| 2026-05-07 15:37 | 53.38428 | 10.31370 | 16426 ft | 368 kts | 161° |
| 2026-05-07 15:37 | 53.35997 | 10.32739 | 16979 ft | 371 kts | 161° |
| 2026-05-07 15:37 | 53.33460 | 10.34168 | 17530 ft | 374 kts | 161° |
| 2026-05-07 15:37 | 53.30963 | 10.35571 | 18045 ft | 377 kts | 161° |
| 2026-05-07 15:38 | 53.28463 | 10.36975 | 18533 ft | 381 kts | 161° |
| 2026-05-07 15:38 | 53.25926 | 10.38399 | 19033 ft | 384 kts | 161° |
| 2026-05-07 15:38 | 53.23422 | 10.39803 | 19519 ft | 386 kts | 161° |
| 2026-05-07 15:38 | 53.20834 | 10.41250 | 20027 ft | 388 kts | 161° |
| 2026-05-07 15:39 | 53.18283 | 10.42675 | 20513 ft | 390 kts | 162° |
| 2026-05-07 15:39 | 53.15657 | 10.44118 | 21005 ft | 392 kts | 164° |
| 2026-05-07 15:39 | 53.12859 | 10.45085 | 21467 ft | 393 kts | 173° |
| 2026-05-07 15:39 | 53.10100 | 10.45181 | 21882 ft | 394 kts | 188° |
| 2026-05-07 15:40 | 53.07396 | 10.44283 | 22348 ft | 395 kts | 192° |
| 2026-05-07 15:40 | 53.04717 | 10.43354 | 22774 ft | 397 kts | 192° |
| 2026-05-07 15:40 | 53.01994 | 10.42431 | 23179 ft | 400 kts | 192° |
| 2026-05-07 15:40 | 52.99277 | 10.41520 | 23584 ft | 402 kts | 192° |
| 2026-05-07 15:41 | 52.96545 | 10.40610 | 23990 ft | 403 kts | 192° |
| 2026-05-07 15:41 | 52.93776 | 10.39692 | 24384 ft | 406 kts | 192° |
| 2026-05-07 15:41 | 52.91016 | 10.38781 | 24761 ft | 408 kts | 192° |
| 2026-05-07 15:41 | 52.88208 | 10.37855 | 25131 ft | 411 kts | 192° |
| 2026-05-07 15:42 | 52.85422 | 10.36939 | 25486 ft | 413 kts | 192° |
| 2026-05-07 15:42 | 52.82521 | 10.35987 | 25842 ft | 415 kts | 192° |
| 2026-05-07 15:42 | 52.79645 | 10.35043 | 26183 ft | 418 kts | 192° |
| 2026-05-07 15:42 | 52.76719 | 10.34086 | 26517 ft | 420 kts | 192° |
| 2026-05-07 15:43 | 52.73850 | 10.33149 | 26839 ft | 422 kts | 192° |
| 2026-05-07 15:43 | 52.70972 | 10.32210 | 27153 ft | 425 kts | 192° |
| 2026-05-07 15:43 | 52.68055 | 10.31259 | 27464 ft | 427 kts | 192° |
| 2026-05-07 15:43 | 52.65128 | 10.30306 | 27770 ft | 429 kts | 192° |
| 2026-05-07 15:44 | 52.62192 | 10.29353 | 28070 ft | 431 kts | 191° |
| 2026-05-07 15:44 | 52.59260 | 10.28402 | 28364 ft | 433 kts | 191° |
| 2026-05-07 15:44 | 52.56298 | 10.27442 | 28659 ft | 435 kts | 191° |
| 2026-05-07 15:44 | 52.53334 | 10.26483 | 28943 ft | 437 kts | 191° |
| 2026-05-07 15:45 | 52.50325 | 10.25511 | 29224 ft | 439 kts | 191° |
| 2026-05-07 15:45 | 52.47315 | 10.24539 | 29495 ft | 441 kts | 191° |
| 2026-05-07 15:45 | 52.44302 | 10.23568 | 29770 ft | 443 kts | 191° |
| 2026-05-07 15:45 | 52.41079 | 10.22531 | 30054 ft | 445 kts | 191° |
| 2026-05-07 15:46 | 52.34939 | 10.20561 | 30578 ft | 449 kts | 191° |
| 2026-05-07 15:46 | 52.31845 | 10.19570 | 30843 ft | 450 kts | 191° |
| 2026-05-07 15:46 | 52.28722 | 10.18571 | 31051 ft | 452 kts | 191° |
| 2026-05-07 15:47 | 52.25588 | 10.17569 | 31058 ft | 452 kts | 191° |
| 2026-05-07 15:47 | 52.19387 | 10.15592 | 31063 ft | 451 kts | 191° |
| 2026-05-07 15:48 | 52.13160 | 10.13613 | 31065 ft | 452 kts | 191° |
| 2026-05-07 15:48 | 52.06906 | 10.11631 | 31065 ft | 453 kts | 191° |
| 2026-05-07 15:49 | 52.00701 | 10.09670 | 31062 ft | 452 kts | 191° |
| 2026-05-07 15:49 | 51.94430 | 10.07695 | 31060 ft | 452 kts | 191° |
| 2026-05-07 15:50 | 51.88092 | 10.05704 | 31057 ft | 451 kts | 192° |
| 2026-05-07 15:50 | 51.81895 | 10.03761 | 31051 ft | 452 kts | 192° |
| 2026-05-07 15:51 | 51.75690 | 10.01819 | 31046 ft | 453 kts | 191° |
| 2026-05-07 15:51 | 51.69503 | 9.99892 | 31038 ft | 454 kts | 191° |
| 2026-05-07 15:52 | 51.63279 | 9.97959 | 31042 ft | 454 kts | 191° |
| 2026-05-07 15:52 | 51.57030 | 9.96023 | 31041 ft | 454 kts | 192° |
| 2026-05-07 15:53 | 51.50826 | 9.94106 | 31038 ft | 454 kts | 192° |
| 2026-05-07 15:53 | 51.44586 | 9.92182 | 31038 ft | 454 kts | 192° |
| 2026-05-07 15:54 | 51.38383 | 9.90276 | 31036 ft | 454 kts | 192° |
| 2026-05-07 15:54 | 51.32161 | 9.88368 | 31032 ft | 454 kts | 192° |
| 2026-05-07 15:55 | 51.25920 | 9.86461 | 31030 ft | 455 kts | 192° |
| 2026-05-07 15:55 | 51.19725 | 9.84573 | 31029 ft | 455 kts | 192° |
| 2026-05-07 15:56 | 51.13450 | 9.82665 | 31029 ft | 455 kts | 192° |
| 2026-05-07 15:56 | 51.07210 | 9.80774 | 31034 ft | 454 kts | 192° |
| 2026-05-07 15:57 | 51.00986 | 9.78893 | 31037 ft | 454 kts | 192° |
| 2026-05-07 15:57 | 50.94764 | 9.77017 | 31039 ft | 454 kts | 192° |
| 2026-05-07 15:58 | 50.88723 | 9.74240 | 30960 ft | 449 kts | 208° |
| 2026-05-07 15:58 | 50.86139 | 9.71599 | 30531 ft | 442 kts | 219° |
| 2026-05-07 15:58 | 50.83800 | 9.68420 | 29793 ft | 441 kts | 223° |
| 2026-05-07 15:58 | 50.81538 | 9.65135 | 29065 ft | 439 kts | 224° |
| 2026-05-07 15:59 | 50.79313 | 9.61863 | 28538 ft | 433 kts | 224° |
| 2026-05-07 15:59 | 50.77082 | 9.58577 | 27962 ft | 428 kts | 224° |
| 2026-05-07 15:59 | 50.74918 | 9.55387 | 27383 ft | 424 kts | 224° |
| 2026-05-07 15:59 | 50.72753 | 9.52191 | 26798 ft | 420 kts | 224° |
| 2026-05-07 16:00 | 50.70622 | 9.49043 | 26215 ft | 416 kts | 224° |
| 2026-05-07 16:00 | 50.68490 | 9.45894 | 25623 ft | 412 kts | 224° |
| 2026-05-07 16:00 | 50.66404 | 9.42810 | 25057 ft | 408 kts | 224° |
| 2026-05-07 16:00 | 50.64315 | 9.39720 | 24481 ft | 404 kts | 224° |
| 2026-05-07 16:01 | 50.62281 | 9.36703 | 23932 ft | 400 kts | 224° |
| 2026-05-07 16:01 | 50.60212 | 9.33709 | 23369 ft | 398 kts | 219° |
| 2026-05-07 16:01 | 50.57827 | 9.31478 | 22745 ft | 397 kts | 202° |
| 2026-05-07 16:01 | 50.55116 | 9.30170 | 22085 ft | 398 kts | 195° |
| 2026-05-07 16:02 | 50.52370 | 9.29127 | 21417 ft | 398 kts | 194° |
| 2026-05-07 16:02 | 50.49632 | 9.28129 | 20758 ft | 397 kts | 194° |
| 2026-05-07 16:02 | 50.46887 | 9.27137 | 20098 ft | 397 kts | 194° |
| 2026-05-07 16:02 | 50.44132 | 9.26146 | 19436 ft | 396 kts | 194° |
| 2026-05-07 16:03 | 50.41421 | 9.25174 | 18784 ft | 395 kts | 194° |
| 2026-05-07 16:03 | 50.38715 | 9.24210 | 18134 ft | 395 kts | 194° |
| 2026-05-07 16:03 | 50.36056 | 9.23266 | 17493 ft | 394 kts | 194° |
| 2026-05-07 16:03 | 50.33386 | 9.22327 | 16850 ft | 393 kts | 194° |
| 2026-05-07 16:04 | 50.30700 | 9.21387 | 16205 ft | 392 kts | 194° |
| 2026-05-07 16:04 | 50.28014 | 9.20449 | 15549 ft | 387 kts | 194° |
| 2026-05-07 16:04 | 50.25411 | 9.19549 | 14897 ft | 378 kts | 193° |
| 2026-05-07 16:04 | 50.22749 | 9.19246 | 14258 ft | 378 kts | 178° |
| 2026-05-07 16:05 | 50.20103 | 9.19620 | 13620 ft | 378 kts | 174° |
| 2026-05-07 16:05 | 50.17436 | 9.20111 | 12980 ft | 378 kts | 174° |
| 2026-05-07 16:05 | 50.14835 | 9.20611 | 12348 ft | 378 kts | 174° |
| 2026-05-07 16:05 | 50.12192 | 9.21127 | 11701 ft | 377 kts | 174° |
| 2026-05-07 16:06 | 50.09581 | 9.21643 | 11079 ft | 376 kts | 174° |
| 2026-05-07 16:06 | 50.06953 | 9.22160 | 10335 ft | 374 kts | 174° |
| 2026-05-07 16:06 | 50.04386 | 9.22590 | 9550 ft | 360 kts | 179° |
| 2026-05-07 16:06 | 50.01979 | 9.22015 | 8783 ft | 343 kts | 201° |
| 2026-05-07 16:07 | 49.99955 | 9.20128 | 7999 ft | 328 kts | 225° |
| 2026-05-07 16:07 | 49.98662 | 9.17345 | 7235 ft | 313 kts | 249° |
| 2026-05-07 16:07 | 49.98232 | 9.14115 | 6458 ft | 300 kts | 274° |
| 2026-05-07 16:07 | 49.98712 | 9.11034 | 5681 ft | 289 kts | 299° |
| 2026-05-07 16:08 | 49.99981 | 9.08683 | 4911 ft | 281 kts | 325° |
| 2026-05-07 16:08 | 50.01722 | 9.07396 | 4312 ft | 269 kts | 341° |
| 2026-05-07 16:08 | 50.03500 | 9.06520 | 4013 ft | 258 kts | 343° |
| 2026-05-07 16:08 | 50.05207 | 9.05736 | 3986 ft | 241 kts | 343° |
| 2026-05-07 16:09 | 50.06656 | 9.04622 | 3962 ft | 225 kts | 318° |
| 2026-05-07 16:09 | 50.07541 | 9.02621 | 3995 ft | 223 kts | 298° |
| 2026-05-07 16:09 | 50.08172 | 9.00415 | 3992 ft | 224 kts | 294° |
| 2026-05-07 16:09 | 50.08775 | 8.98133 | 3992 ft | 224 kts | 294° |
| 2026-05-07 16:10 | 50.09359 | 8.95894 | 3992 ft | 224 kts | 294° |
| 2026-05-07 16:10 | 50.09956 | 8.93588 | 3994 ft | 224 kts | 294° |
| 2026-05-07 16:10 | 50.10536 | 8.91333 | 3993 ft | 224 kts | 294° |
| 2026-05-07 16:10 | 50.10952 | 8.88943 | 3963 ft | 228 kts | 272° |
| 2026-05-07 16:11 | 50.10676 | 8.86550 | 3965 ft | 222 kts | 256° |
| 2026-05-07 16:11 | 50.10178 | 8.84262 | 3794 ft | 215 kts | 253° |
| 2026-05-07 16:11 | 50.09655 | 8.82103 | 3595 ft | 202 kts | 252° |
| 2026-05-07 16:11 | 50.09163 | 8.80110 | 3296 ft | 190 kts | 252° |
| 2026-05-07 16:12 | 50.08704 | 8.78235 | 3007 ft | 180 kts | 252° |
| 2026-05-07 16:12 | 50.08265 | 8.76421 | 2747 ft | 176 kts | 252° |
| 2026-05-07 16:12 | 50.07842 | 8.74664 | 2529 ft | 165 kts | 252° |
| 2026-05-07 16:12 | 50.07446 | 8.73017 | 2281 ft | 153 kts | 252° |
| 2026-05-07 16:13 | 50.07085 | 8.71517 | 2061 ft | 141 kts | 252° |
| 2026-05-07 16:13 | 50.06737 | 8.70064 | 1887 ft | 141 kts | 252° |
| 2026-05-07 16:13 | 50.06396 | 8.68638 | 1711 ft | 141 kts | 251° |
| 2026-05-07 16:13 | 50.06052 | 8.67206 | 1537 ft | 140 kts | 251° |
| 2026-05-07 16:14 | 50.05713 | 8.65786 | 1357 ft | 138 kts | 251° |
| 2026-05-07 16:14 | 50.05391 | 8.64373 | 1174 ft | 138 kts | 252° |
| 2026-05-07 16:14 | 50.05057 | 8.62982 | 950 ft | 136 kts | 250° |
| 2026-05-07 16:14 | 50.04718 | 8.61612 | 770 ft | 132 kts | 250° |
| 2026-05-07 16:15 | 50.04383 | 8.60234 | 628 ft | 135 kts | 250° |
| 2026-05-07 16:15 | 50.04053 | 8.58861 | 455 ft | 134 kts | 251° |
| 2026-05-07 16:15 | 50.03736 | 8.57533 | 371 ft | 117 kts | 251° |
| 2026-05-07 16:15 | 50.03514 | 8.56587 | 371 ft | 67 kts | 250° |
| 2026-05-07 16:16 | 50.03432 | 8.56122 | 371 ft | 29 kts | 284° |
| 2026-05-07 16:16 | 50.03455 | 8.55891 | 371 ft | 17 kts | 280° |
| 2026-05-07 16:16 | 50.03465 | 8.55804 | 371 ft | 0 kts | 280° |
| 2026-05-07 16:16 | 50.03466 | 8.55798 | 371 ft | 1 kts | 280° |
| 2026-05-07 16:17 | 50.03466 | 8.55797 | 371 ft | 0 kts | 280° |
| 2026-05-07 16:17 | 50.03467 | 8.55788 | 371 ft | 3 kts | 280° |
| 2026-05-07 16:18 | 50.03473 | 8.55729 | 371 ft | 6 kts | 280° |
| 2026-05-07 16:18 | 50.03482 | 8.55649 | 371 ft | 7 kts | 280° |
| 2026-05-07 16:18 | 50.03492 | 8.55560 | 371 ft | 8 kts | 279° |
| 2026-05-07 16:18 | 50.03516 | 8.55500 | 371 ft | 7 kts | 9° |
| 2026-05-07 16:19 | 50.03573 | 8.55516 | 371 ft | 8 kts | 10° |
| 2026-05-07 16:19 | 50.03630 | 8.55529 | 371 ft | 6 kts | 9° |
| 2026-05-07 16:19 | 50.03640 | 8.55531 | 371 ft | 0 kts | 9° |
| 2026-05-07 16:19 | 50.03641 | 8.55532 | 371 ft | 0 kts | 9° |
| 2026-05-07 16:20 | 50.03673 | 8.55539 | 371 ft | 14 kts | 9° |
| 2026-05-07 16:20 | 50.03776 | 8.55550 | 371 ft | 14 kts | 349° |
| 2026-05-07 16:20 | 50.03872 | 8.55496 | 371 ft | 13 kts | 338° |
| 2026-05-07 16:20 | 50.03948 | 8.55533 | 371 ft | 13 kts | 64° |
| 2026-05-07 16:21 | 50.03980 | 8.55662 | 371 ft | 11 kts | 70° |
| 2026-05-07 16:21 | 50.04003 | 8.55759 | 371 ft | 5 kts | 70° |
| 2026-05-07 16:21 | 50.04004 | 8.55761 | 371 ft | 0 kts | 70° |
| 2026-05-07 16:21 | 50.04004 | 8.55762 | 371 ft | 0 kts | 70° |
| 2026-05-07 16:22 | 50.04022 | 8.55839 | 371 ft | 13 kts | 70° |
| 2026-05-07 16:22 | 50.04053 | 8.55969 | 371 ft | 12 kts | 70° |
| 2026-05-07 16:22 | 50.04086 | 8.56104 | 371 ft | 13 kts | 70° |
| 2026-05-07 16:22 | 50.04119 | 8.56245 | 371 ft | 14 kts | 70° |
| 2026-05-07 16:23 | 50.04155 | 8.56394 | 371 ft | 15 kts | 70° |
| 2026-05-07 16:23 | 50.04193 | 8.56555 | 371 ft | 15 kts | 71° |
| 2026-05-07 16:23 | 50.04232 | 8.56716 | 371 ft | 16 kts | 69° |
| 2026-05-07 16:23 | 50.04311 | 8.56817 | 371 ft | 15 kts | 11° |
| 2026-05-07 16:24 | 50.04421 | 8.56844 | 371 ft | 15 kts | 6° |
| 2026-05-07 16:24 | 50.04537 | 8.56856 | 371 ft | 17 kts | 12° |
| 2026-05-07 16:24 | 50.04649 | 8.56932 | 371 ft | 17 kts | 26° |
| 2026-05-07 16:24 | 50.04759 | 8.57010 | 371 ft | 16 kts | 24° |
| 2026-05-07 16:25 | 50.04843 | 8.57069 | 371 ft | 9 kts | 25° |
| 2026-05-07 16:25 | 50.04892 | 8.57114 | 371 ft | 3 kts | 58° |
| 2026-05-07 16:25 | 50.04887 | 8.57138 | 371 ft | 0 kts | 140° |